createdAt,value
2018-01-14T00:00:20.908Z,22.98
2018-01-14T00:02:49.040Z,20.48
2018-01-14T00:05:17.932Z,22.10
2018-01-14T00:07:46.832Z,22.98
2018-01-14T00:10:15.734Z,22.27
2018-01-14T00:12:43.856Z,21.95
2018-01-14T00:15:11.997Z,21.40
2018-01-14T00:17:40.123Z,20.92
2018-01-14T00:20:08.279Z,20.77
2018-01-14T00:22:36.401Z,19.92
2018-01-14T00:25:04.549Z,20.37
2018-01-14T00:27:32.665Z,20.65
2018-01-14T00:30:00.809Z,21.45
2018-01-14T00:32:28.924Z,21.87
2018-01-14T00:34:57.065Z,20.52
2018-01-14T00:37:25.205Z,20.60
2018-01-14T00:39:53.347Z,21.77
2018-01-14T00:42:21.490Z,20.20
2018-01-14T00:44:49.612Z,21.70
2018-01-14T00:47:18.497Z,21.00
2018-01-14T00:49:47.388Z,21.55
2018-01-14T00:52:16.301Z,22.00
2018-01-14T00:54:44.438Z,19.30
2018-01-14T00:57:12.568Z,21.83
2018-01-14T00:59:40.689Z,20.50
2018-01-14T01:02:09.580Z,20.90
2018-01-14T01:04:38.461Z,23.20
2018-01-14T01:07:07.537Z,20.90
2018-01-14T01:09:35.648Z,20.70
2018-01-14T01:12:03.764Z,20.83
2018-01-14T01:14:31.917Z,22.87
2018-01-14T01:17:00.052Z,22.02
2018-01-14T01:19:28.948Z,21.30
2018-01-14T01:21:57.077Z,23.45
2018-01-14T01:24:25.211Z,20.65
2018-01-14T01:26:53.324Z,20.90
2018-01-14T01:29:21.469Z,23.27
2018-01-14T01:31:49.588Z,21.20
2018-01-14T01:34:18.486Z,23.17
2018-01-14T01:36:47.369Z,19.77
2018-01-14T01:39:16.446Z,22.60
2018-01-14T01:41:44.565Z,21.45
2018-01-14T01:44:12.686Z,21.15
2018-01-14T01:46:40.816Z,21.25
2018-01-14T01:49:08.938Z,21.15
2018-01-14T01:51:37.082Z,21.85
2018-01-14T01:54:05.196Z,21.83
2018-01-14T01:56:34.096Z,22.05
2018-01-14T01:59:02.233Z,21.80
2018-01-14T02:01:30.374Z,20.80
2018-01-14T02:03:58.501Z,22.45
2018-01-14T02:06:27.400Z,21.70
2018-01-14T02:08:56.292Z,21.10
2018-01-14T02:11:24.678Z,21.48
2018-01-14T02:13:52.802Z,22.75
2018-01-14T02:16:20.929Z,21.65
2018-01-14T02:18:49.053Z,22.33
2018-01-14T02:21:17.218Z,21.52
2018-01-14T02:23:48.166Z,19.37
2018-01-14T02:26:16.286Z,21.20
2018-01-14T02:28:44.421Z,20.83
2018-01-14T02:31:12.545Z,20.83
2018-01-14T02:33:40.681Z,20.90
2018-01-14T02:36:08.808Z,20.70
2018-01-14T02:38:36.963Z,20.23
2018-01-14T02:41:05.079Z,19.30
2018-01-14T02:43:33.218Z,20.25
2018-01-14T02:46:01.342Z,20.40
2018-01-14T02:48:29.467Z,20.02
2018-01-14T02:50:57.613Z,19.80
2018-01-14T02:53:25.773Z,20.08
2018-01-14T02:55:53.909Z,19.73
2018-01-14T02:58:22.796Z,19.80
2018-01-14T03:00:51.701Z,19.05
2018-01-14T03:03:19.841Z,19.90
2018-01-14T03:05:47.980Z,18.62
2018-01-14T03:08:16.111Z,16.95
2018-01-14T03:10:44.242Z,18.00
2018-01-14T03:13:12.389Z,17.65
2018-01-14T03:15:40.554Z,17.98
2018-01-14T03:18:08.689Z,16.58
2018-01-14T03:20:37.649Z,17.05
2018-01-14T03:23:05.775Z,16.20
2018-01-14T03:25:33.901Z,17.23
2018-01-14T03:28:02.029Z,17.15
2018-01-14T03:30:30.147Z,17.58
2018-01-14T03:32:58.272Z,17.87
2018-01-14T03:35:26.397Z,17.55
2018-01-14T03:37:54.530Z,16.67
2018-01-14T03:40:22.648Z,15.43
2018-01-14T03:42:51.893Z,17.17
2018-01-14T03:45:20.129Z,16.20
2018-01-14T03:47:48.269Z,16.65
2018-01-14T03:50:16.436Z,16.95
2018-01-14T03:52:44.583Z,15.98
2018-01-14T03:55:12.708Z,16.05
2018-01-14T03:57:41.609Z,15.70
2018-01-14T04:00:10.513Z,16.52
2018-01-14T04:02:38.632Z,15.45
2018-01-14T04:05:06.764Z,15.57
2018-01-14T04:07:34.884Z,16.50
2018-01-14T04:10:03.811Z,16.02
2018-01-14T04:12:32.004Z,15.60
2018-01-14T04:15:00.868Z,15.95
2018-01-14T04:17:28.996Z,15.18
2018-01-14T04:19:57.193Z,16.83
2018-01-14T04:22:25.319Z,15.63
2018-01-14T04:24:54.220Z,15.63
2018-01-14T04:27:22.421Z,16.33
2018-01-14T04:29:50.557Z,15.70
2018-01-14T04:32:19.467Z,16.37
2018-01-14T04:34:47.592Z,15.73
2018-01-14T04:37:15.722Z,16.37
2018-01-14T04:39:43.849Z,15.50
2018-01-14T04:42:11.994Z,15.57
2018-01-14T04:44:40.114Z,16.42
2018-01-14T04:47:08.255Z,15.80
2018-01-14T04:49:36.368Z,18.70
2018-01-14T04:52:04.508Z,17.30
2018-01-14T04:54:32.645Z,17.62
2018-01-14T04:57:00.762Z,15.98
2018-01-14T04:59:29.657Z,17.02
2018-01-14T05:01:57.777Z,16.58
2018-01-14T05:04:25.908Z,14.73
2018-01-14T05:06:54.029Z,15.63
2018-01-14T05:09:22.169Z,16.65
2018-01-14T05:11:51.056Z,15.65
2018-01-14T05:14:19.955Z,15.25
2018-01-14T05:16:48.860Z,16.00
2018-01-14T05:19:17.956Z,16.30
2018-01-14T05:22:01.891Z,15.60
2018-01-14T05:24:30.223Z,15.80
2018-01-14T05:26:58.364Z,15.35
2018-01-14T05:29:26.498Z,14.65
2018-01-14T05:31:55.388Z,15.02
2018-01-14T05:34:24.296Z,15.18
2018-01-14T05:36:52.414Z,15.88
2018-01-14T05:39:20.555Z,15.20
2018-01-14T05:41:48.689Z,15.23
2018-01-14T05:44:17.573Z,15.75
2018-01-14T05:46:46.476Z,14.00
2018-01-14T05:49:14.612Z,15.85
2018-01-14T05:51:42.747Z,16.00
2018-01-14T05:54:10.864Z,15.23
2018-01-14T05:56:39.004Z,14.93
2018-01-14T05:59:07.138Z,15.68
2018-01-14T06:01:35.316Z,15.77
2018-01-14T06:04:03.449Z,15.30
2018-01-14T06:06:31.569Z,14.23
2018-01-14T06:08:59.716Z,15.70
2018-01-14T06:11:28.596Z,15.25
2018-01-14T06:13:57.497Z,15.25
2018-01-14T06:16:26.372Z,14.98
2018-01-14T06:18:55.282Z,15.13
2018-01-14T06:21:23.413Z,15.55
2018-01-14T06:23:53.073Z,15.73
2018-01-14T06:26:21.193Z,15.50
2018-01-14T06:28:49.334Z,16.33
2018-01-14T06:31:17.644Z,16.92
2018-01-14T06:33:45.964Z,15.63
2018-01-14T06:36:14.096Z,15.60
2018-01-14T06:38:42.220Z,17.45
2018-01-14T06:41:10.343Z,16.80
2018-01-14T06:43:39.228Z,15.73
2018-01-14T06:46:07.384Z,14.68
2018-01-14T06:48:35.505Z,17.25
2018-01-14T06:51:03.759Z,18.05
2018-01-14T06:53:32.660Z,15.30
2018-01-14T06:56:01.570Z,17.08
2018-01-14T06:58:29.686Z,14.43
2018-01-14T07:00:57.870Z,16.30
2018-01-14T07:03:25.956Z,15.10
2018-01-14T07:05:54.854Z,16.27
2018-01-14T07:08:23.758Z,16.25
2018-01-14T07:10:51.882Z,15.15
2018-01-14T07:13:20.013Z,13.93
2018-01-14T07:15:48.129Z,15.45
2018-01-14T07:18:16.269Z,15.88
2018-01-14T07:20:44.385Z,15.25
2018-01-14T07:23:13.304Z,16.48
2018-01-14T07:25:41.425Z,14.35
2018-01-14T07:28:09.558Z,15.13
2018-01-14T07:30:37.697Z,15.27
2018-01-14T07:33:08.515Z,15.05
2018-01-14T07:35:37.697Z,15.18
2018-01-14T07:38:05.808Z,15.25
2018-01-14T07:40:33.945Z,15.77
2018-01-14T07:43:02.077Z,16.00
2018-01-14T07:45:30.205Z,15.35
2018-01-14T07:47:59.103Z,16.20
2018-01-14T07:50:28.006Z,15.23
2018-01-14T07:52:56.127Z,14.73
2018-01-14T07:55:24.268Z,15.25
2018-01-14T07:57:52.398Z,15.65
2018-01-14T08:00:20.556Z,15.50
2018-01-14T08:02:48.687Z,16.58
2018-01-14T08:05:16.801Z,15.63
2018-01-14T08:07:45.713Z,17.40
2018-01-14T08:10:13.834Z,15.10
2018-01-14T08:12:41.964Z,15.90
2018-01-14T08:15:10.102Z,15.48
2018-01-14T08:17:38.242Z,15.93
2018-01-14T08:20:06.386Z,15.65
2018-01-14T08:22:34.526Z,15.07
2018-01-14T08:25:02.728Z,15.27
2018-01-14T08:27:30.875Z,14.77
2018-01-14T08:29:58.994Z,15.35
2018-01-14T08:32:27.138Z,14.65
2018-01-14T08:34:55.284Z,15.27
2018-01-14T08:37:23.396Z,14.52
2018-01-14T08:39:51.529Z,14.45
2018-01-14T08:42:20.417Z,14.68
2018-01-14T08:44:49.322Z,16.62
2018-01-14T08:47:17.452Z,16.40
2018-01-14T08:49:45.588Z,14.45
2018-01-14T08:52:13.712Z,14.48
2018-01-14T08:54:41.864Z,15.85
2018-01-14T08:57:09.980Z,14.63
2018-01-14T08:59:38.120Z,14.50
2018-01-14T09:02:07.014Z,14.45
2018-01-14T09:04:35.215Z,14.00
2018-01-14T09:07:03.428Z,15.70
2018-01-14T09:09:31.557Z,14.18
2018-01-14T09:11:59.696Z,14.07
2018-01-14T09:14:28.588Z,13.60
2018-01-14T09:16:57.524Z,14.20
2018-01-14T09:19:25.654Z,13.57
2018-01-14T09:21:54.599Z,15.38
2018-01-14T09:24:22.728Z,14.07
2018-01-14T09:26:50.882Z,14.93
2018-01-14T09:29:19.005Z,13.20
2018-01-14T09:31:47.150Z,15.65
2018-01-14T09:34:15.271Z,13.77
2018-01-14T09:36:43.428Z,12.40
2018-01-14T09:39:13.217Z,13.30
2018-01-14T09:41:41.348Z,14.48
2018-01-14T09:44:09.489Z,13.82
2018-01-14T09:46:37.621Z,14.63
2018-01-14T09:49:05.765Z,13.43
2018-01-14T09:51:33.896Z,13.65
2018-01-14T09:54:02.145Z,12.35
2018-01-14T09:56:30.272Z,12.20
2018-01-14T09:58:58.406Z,12.45
2018-01-14T10:01:26.536Z,12.00
2018-01-14T10:03:55.453Z,11.77
2018-01-14T10:06:23.594Z,12.93
2018-01-14T10:08:51.736Z,12.82
2018-01-14T10:11:19.858Z,12.00
2018-01-14T10:13:48.001Z,12.18
2018-01-14T10:16:16.790Z,11.63
2018-01-14T10:18:44.920Z,11.00
2018-01-14T10:21:13.432Z,10.85
2018-01-14T10:23:41.550Z,11.55
2018-01-14T10:26:09.735Z,10.75
2018-01-14T10:28:37.865Z,11.73
2018-01-14T10:31:06.853Z,11.43
2018-01-14T10:33:35.018Z,11.05
2018-01-14T10:36:03.165Z,10.02
2018-01-14T10:38:31.304Z,10.40
2018-01-14T10:40:59.456Z,10.50
2018-01-14T10:43:27.597Z,10.57
2018-01-14T10:45:55.765Z,10.18
2018-01-14T10:48:24.941Z,10.55
2018-01-14T10:50:53.086Z,11.38
2018-01-14T10:53:21.213Z,10.70
2018-01-14T10:55:50.117Z,11.10
2018-01-14T10:58:19.018Z,11.00
2018-01-14T11:00:52.718Z,10.95
2018-01-14T11:03:20.860Z,10.48
2018-01-14T11:05:49.004Z,10.60
2018-01-14T11:08:17.151Z,10.60
2018-01-14T11:10:45.312Z,10.15
2018-01-14T11:13:13.516Z,11.50
2018-01-14T11:15:41.664Z,11.20
2018-01-14T11:18:09.804Z,11.60
2018-01-14T11:20:38.722Z,11.60
2018-01-14T11:23:07.213Z,10.77
2018-01-14T11:25:35.360Z,10.35
2018-01-14T11:28:03.508Z,10.68
2018-01-14T11:30:31.760Z,11.35
2018-01-14T11:32:59.924Z,11.43
2018-01-14T11:35:28.057Z,11.00
2018-01-14T11:37:56.201Z,11.27
2018-01-14T11:40:25.155Z,10.98
2018-01-14T11:42:53.257Z,10.45
2018-01-14T11:45:22.157Z,10.65
2018-01-14T11:47:51.069Z,10.10
2018-01-14T11:50:19.305Z,10.57
2018-01-14T11:52:47.491Z,10.40
2018-01-14T11:55:16.015Z,10.52
2018-01-14T11:57:44.157Z,10.30
2018-01-14T12:00:12.280Z,10.35
2018-01-14T12:02:40.573Z,10.98
2018-01-14T12:05:08.691Z,11.40
2018-01-14T12:07:36.884Z,11.98
2018-01-14T12:10:05.012Z,11.30
2018-01-14T12:12:33.912Z,10.98
2018-01-14T12:15:02.080Z,11.15
2018-01-14T12:17:30.244Z,10.98
2018-01-14T12:19:59.134Z,10.60
2018-01-14T12:22:28.061Z,11.30
2018-01-14T12:24:56.201Z,11.98
2018-01-14T12:27:25.468Z,11.63
2018-01-14T12:29:53.601Z,11.40
2018-01-14T12:32:21.748Z,11.23
2018-01-14T12:34:53.579Z,11.07
2018-01-14T12:37:22.484Z,10.75
2018-01-14T12:39:50.639Z,10.13
2018-01-14T12:42:18.776Z,11.27
2018-01-14T12:44:46.904Z,10.45
2018-01-14T12:47:15.062Z,10.32
2018-01-14T12:49:44.067Z,11.00
2018-01-14T12:52:12.250Z,10.18
2018-01-14T12:54:40.371Z,9.85
2018-01-14T12:57:08.497Z,10.43
2018-01-14T12:59:36.642Z,10.70
2018-01-14T13:02:05.532Z,10.88
2018-01-14T13:04:34.440Z,10.98
2018-01-14T13:07:02.614Z,10.68
2018-01-14T13:09:30.718Z,9.88
2018-01-14T13:11:59.176Z,10.45
2018-01-14T13:14:27.366Z,10.13
2018-01-14T13:16:55.498Z,10.80
2018-01-14T13:19:23.672Z,10.23
2018-01-14T13:21:51.847Z,10.50
2018-01-14T13:24:20.744Z,10.02
2018-01-14T13:26:48.873Z,10.05
2018-01-14T13:29:17.014Z,12.05
2018-01-14T13:31:45.248Z,10.73
2018-01-14T13:34:13.446Z,10.27
2018-01-14T13:36:41.632Z,11.10
2018-01-14T13:39:09.760Z,10.38
2018-01-14T13:41:37.895Z,11.23
2018-01-14T13:44:06.041Z,10.45
2018-01-14T13:46:34.528Z,10.35
2018-01-14T13:49:02.662Z,9.10
2018-01-14T13:51:30.797Z,10.20
2018-01-14T13:53:58.954Z,9.65
2018-01-14T13:56:27.173Z,9.40
2018-01-14T13:58:56.130Z,8.75
2018-01-14T14:01:24.292Z,10.30
2018-01-14T14:03:53.271Z,11.73
2018-01-14T14:06:21.466Z,11.27
2018-01-14T14:08:49.602Z,10.60
2018-01-14T14:11:17.736Z,11.07
2018-01-14T14:13:46.636Z,10.70
2018-01-14T14:16:14.839Z,12.77
2018-01-14T14:18:42.954Z,10.43
2018-01-14T14:21:11.140Z,11.52
2018-01-14T14:23:40.036Z,11.80
2018-01-14T14:26:08.986Z,10.30
2018-01-14T14:28:37.961Z,10.60
2018-01-14T14:31:06.146Z,9.55
2018-01-14T14:33:34.633Z,10.52
2018-01-14T14:36:02.768Z,11.27
2018-01-14T14:38:30.899Z,9.45
2018-01-14T14:41:00.579Z,10.05
2018-01-14T14:43:28.736Z,9.18
2018-01-14T14:45:56.900Z,11.02
2018-01-14T14:48:25.084Z,10.68
2018-01-14T14:50:53.300Z,10.15
2018-01-14T14:53:22.196Z,10.65
2018-01-14T14:55:51.105Z,10.18
2018-01-14T14:58:19.236Z,9.77
2018-01-14T15:00:47.415Z,11.75
2018-01-14T15:03:15.574Z,10.18
2018-01-14T15:05:43.702Z,11.63
2018-01-14T15:08:11.824Z,15.85
2018-01-14T15:10:40.021Z,10.75
2018-01-14T15:13:08.896Z,19.25
2018-01-14T15:15:37.806Z,14.27
2018-01-14T15:18:05.960Z,14.25
2018-01-14T15:20:34.961Z,8.23
2018-01-14T15:23:03.081Z,10.10
2018-01-14T15:25:31.244Z,9.98
2018-01-14T15:27:59.430Z,11.25
2018-01-14T15:30:27.549Z,9.80
2018-01-14T15:32:55.683Z,9.90
2018-01-14T15:35:23.862Z,9.45
2018-01-14T15:37:52.794Z,10.48
2018-01-14T15:40:21.690Z,18.23
2018-01-14T15:42:49.822Z,10.30
2018-01-14T15:45:17.961Z,10.65
2018-01-14T15:47:46.077Z,10.70
2018-01-14T15:50:14.234Z,9.50
2018-01-14T15:52:42.353Z,9.23
2018-01-14T15:55:10.632Z,11.10
2018-01-14T15:57:38.774Z,9.80
2018-01-14T16:00:07.356Z,9.95
2018-01-14T16:02:36.264Z,10.52
2018-01-14T16:05:04.431Z,9.95
2018-01-14T16:07:33.319Z,10.90
2018-01-14T16:10:02.977Z,10.82
2018-01-14T16:12:31.101Z,9.93
2018-01-14T16:14:59.258Z,10.48
2018-01-14T16:17:27.428Z,10.65
2018-01-14T16:19:56.318Z,12.00
2018-01-14T16:22:25.229Z,11.90
2018-01-14T16:24:53.397Z,12.50
2018-01-14T16:27:35.575Z,12.70
2018-01-14T16:30:10.030Z,12.30
2018-01-14T16:32:38.840Z,13.35
2018-01-14T16:35:07.037Z,13.15
2018-01-14T16:37:35.399Z,13.18
2018-01-14T16:40:04.633Z,12.65
2018-01-14T16:42:32.786Z,13.00
2018-01-14T16:45:00.909Z,13.18
2018-01-14T16:47:29.049Z,12.48
2018-01-14T16:49:57.986Z,18.70
2018-01-14T16:52:26.110Z,15.18
2018-01-14T16:54:55.034Z,13.38
2018-01-14T16:57:23.207Z,15.35
2018-01-14T16:59:51.327Z,17.52
2018-01-14T17:02:19.464Z,15.40
2018-01-14T17:04:47.588Z,14.60
2018-01-14T17:07:16.828Z,16.50
2018-01-14T17:09:45.045Z,18.90
2018-01-14T17:12:13.182Z,19.52
2018-01-14T17:14:41.585Z,18.58
2018-01-14T17:17:09.834Z,20.48
2018-01-14T17:19:38.182Z,21.58
2018-01-14T17:22:07.073Z,23.08
2018-01-14T17:24:35.234Z,20.30
2018-01-14T17:27:04.128Z,19.90
2018-01-14T17:29:32.254Z,18.12
2018-01-14T17:32:00.393Z,17.30
2018-01-14T17:34:28.509Z,16.25
2018-01-14T17:36:56.705Z,15.75
2018-01-14T17:39:24.874Z,17.35
2018-01-14T17:41:54.010Z,15.57
2018-01-14T17:44:22.112Z,14.25
2018-01-14T17:46:50.290Z,15.48
2018-01-14T17:49:18.393Z,16.50
2018-01-14T17:51:46.771Z,15.57
2018-01-14T17:54:15.649Z,16.58
2018-01-14T17:56:44.549Z,16.85
2018-01-14T17:59:12.735Z,16.98
2018-01-14T18:01:41.098Z,17.05
2018-01-14T18:04:09.242Z,15.75
2018-01-14T18:06:37.409Z,16.98
2018-01-14T18:09:05.562Z,17.05
2018-01-14T18:11:33.697Z,18.10
2018-01-14T18:14:01.899Z,18.27
2018-01-14T18:16:30.034Z,19.05
2018-01-14T18:18:59.027Z,21.73
2018-01-14T18:21:28.232Z,20.37
2018-01-14T18:23:56.386Z,21.62
2018-01-14T18:26:25.285Z,24.12
2018-01-14T18:28:53.647Z,25.42
2018-01-14T18:31:22.985Z,23.27
2018-01-14T18:33:51.135Z,22.15
2018-01-14T18:36:19.505Z,21.02
2018-01-14T18:38:48.675Z,22.83
2018-01-14T18:41:16.840Z,21.62
2018-01-14T18:43:45.210Z,19.40
2018-01-14T18:46:13.342Z,17.87
2018-01-14T18:48:41.474Z,18.73
2018-01-14T18:51:10.401Z,19.92
2018-01-14T18:53:38.548Z,19.12
2018-01-14T18:56:06.678Z,19.65
2018-01-14T18:58:34.919Z,20.27
2018-01-14T19:01:03.076Z,19.58
2018-01-14T19:03:31.250Z,18.52
2018-01-14T19:05:59.408Z,17.65
2018-01-14T19:08:27.552Z,18.42
2018-01-14T19:10:56.540Z,18.23
2018-01-14T19:13:24.736Z,17.35
2018-01-14T19:15:53.708Z,17.80
2018-01-14T19:18:27.516Z,17.05
2018-01-14T19:20:57.948Z,18.48
2018-01-14T19:23:28.611Z,22.35
2018-01-14T19:25:57.544Z,23.33
2018-01-14T19:28:25.669Z,23.50
2018-01-14T19:30:54.031Z,22.30
2018-01-14T19:33:23.930Z,21.10
2018-01-14T19:35:52.824Z,19.05
2018-01-14T19:38:22.775Z,19.80
2018-01-14T19:40:53.700Z,22.00
2018-01-14T19:43:22.142Z,20.30
2018-01-14T19:45:51.554Z,20.15
2018-01-14T19:48:21.294Z,20.12
2018-01-14T19:50:49.459Z,30.27
2018-01-14T19:53:18.487Z,26.70
2018-01-14T19:55:47.891Z,30.25
2018-01-14T19:58:17.519Z,30.48
2018-01-14T20:00:48.134Z,32.72
2018-01-14T20:03:17.866Z,32.63
2018-01-14T20:05:48.292Z,32.65
2018-01-14T20:08:17.566Z,28.10
2018-01-14T20:10:48.059Z,26.83
2018-01-14T20:13:16.492Z,23.00
2018-01-14T20:15:45.926Z,23.48
2018-01-14T20:18:14.877Z,19.45
2018-01-14T20:20:43.040Z,18.75
2018-01-14T20:23:11.224Z,19.48
2018-01-14T20:25:39.347Z,22.30
2018-01-14T20:28:07.526Z,25.83
2018-01-14T20:30:35.783Z,23.73
2018-01-14T20:33:03.974Z,22.92
2018-01-14T20:35:32.154Z,25.80
2018-01-14T20:38:00.400Z,25.40
2018-01-14T20:40:29.405Z,23.25
2018-01-14T20:42:57.616Z,22.15
2018-01-14T20:45:25.793Z,22.50
2018-01-14T20:47:53.955Z,22.33
2018-01-14T20:50:22.148Z,19.55
2018-01-14T20:52:50.329Z,18.75
2018-01-14T20:55:18.491Z,18.52
2018-01-14T20:57:46.632Z,20.90
2018-01-14T21:00:15.043Z,20.60
2018-01-14T21:02:43.169Z,22.35
2018-01-14T21:05:11.360Z,19.33
2018-01-14T21:07:39.592Z,18.58
2018-01-14T21:10:08.517Z,17.02
2018-01-14T21:12:36.686Z,16.48
2018-01-14T21:15:04.852Z,19.67
2018-01-14T21:17:33.040Z,17.85
2018-01-14T21:20:01.263Z,19.15
2018-01-14T21:22:29.453Z,17.90
2018-01-14T21:24:58.369Z,17.73
2018-01-14T21:27:26.568Z,17.77
2018-01-14T21:29:54.855Z,16.37
2018-01-14T21:32:23.012Z,17.10
2018-01-14T21:34:51.206Z,17.85
2018-01-14T21:37:19.429Z,16.62
2018-01-14T21:39:48.335Z,16.50
2018-01-14T21:42:16.504Z,17.02
2018-01-14T21:44:44.691Z,16.85
2018-01-14T21:47:12.857Z,18.17
2018-01-14T21:49:40.984Z,17.50
2018-01-14T21:52:09.118Z,17.85
2018-01-14T21:54:37.264Z,19.40
2018-01-14T21:57:05.400Z,18.15
2018-01-14T21:59:33.682Z,18.25
2018-01-14T22:02:01.847Z,18.08
2018-01-14T22:04:30.029Z,19.00
2018-01-14T22:06:58.189Z,19.45
2018-01-14T22:09:26.368Z,18.52
2018-01-14T22:11:54.480Z,18.05
2018-01-14T22:14:22.623Z,17.65
2018-01-14T22:16:50.816Z,17.33
2018-01-14T22:19:18.986Z,17.77
2018-01-14T22:21:47.165Z,17.12
2018-01-14T22:24:15.310Z,16.90
2018-01-14T22:26:43.479Z,17.45
2018-01-14T22:29:11.702Z,17.35
2018-01-14T22:31:39.932Z,17.58
2018-01-14T22:34:08.116Z,17.60
2018-01-14T22:36:36.242Z,16.60
2018-01-14T22:39:04.428Z,16.27
2018-01-14T22:41:32.587Z,16.12
2018-01-14T22:44:01.531Z,16.50
2018-01-14T22:46:29.674Z,15.93
2018-01-14T22:48:57.866Z,18.12
2018-01-14T22:51:26.315Z,16.98
2018-01-14T22:53:54.455Z,17.70
2018-01-14T22:56:23.389Z,18.17
2018-01-14T22:58:51.559Z,16.60
2018-01-14T23:01:19.714Z,18.48
2018-01-14T23:03:47.850Z,18.65
2018-01-14T23:06:16.065Z,17.00
2018-01-14T23:08:44.579Z,16.67
2018-01-14T23:11:12.700Z,16.60
2018-01-14T23:13:40.852Z,19.80
2018-01-14T23:16:08.989Z,18.27
2018-01-14T23:18:37.138Z,19.45
2018-01-14T23:21:06.828Z,16.52
2018-01-14T23:23:34.972Z,16.33
2018-01-14T23:26:03.117Z,14.50
2018-01-14T23:28:31.243Z,16.30
2018-01-14T23:30:59.392Z,15.20
2018-01-14T23:33:28.314Z,14.85
2018-01-14T23:35:56.654Z,18.10
2018-01-14T23:38:24.774Z,20.70
2018-01-14T23:40:52.908Z,17.75
2018-01-14T23:43:21.117Z,18.80
2018-01-14T23:45:49.246Z,20.75
2018-01-14T23:48:18.156Z,18.15
2018-01-14T23:50:46.397Z,20.37
2018-01-14T23:53:14.537Z,17.77
2018-01-14T23:55:42.669Z,20.62
2018-01-14T23:58:10.808Z,22.50
